sensor_id;sensor_type;location;lat;lon;timestamp;P1;durP1;ratioP1;P2;durP2;ratioP2
38843;SDS011;24596;48.080;8.362;2022-10-16T00:01:11;4.22;;;1.67;;
38843;SDS011;24596;48.080;8.362;2022-10-16T00:03:37;6.22;;;1.70;;
38843;SDS011;24596;48.080;8.362;2022-10-16T00:06:03;9.65;;;1.50;;
38843;SDS011;24596;48.080;8.362;2022-10-16T00:08:28;4.13;;;1.55;;
38843;SDS011;24596;48.080;8.362;2022-10-16T00:10:58;3.10;;;1.38;;
38843;SDS011;24596;48.080;8.362;2022-10-16T00:13:23;5.07;;;1.65;;
38843;SDS011;24596;48.080;8.362;2022-10-16T00:15:49;3.88;;;1.85;;
38843;SDS011;24596;48.080;8.362;2022-10-16T00:18:14;5.75;;;1.42;;
38843;SDS011;24596;48.080;8.362;2022-10-16T00:20:39;4.32;;;1.60;;
38843;SDS011;24596;48.080;8.362;2022-10-16T00:23:04;10.20;;;1.80;;
38843;SDS011;24596;48.080;8.362;2022-10-16T00:25:30;5.65;;;1.90;;
38843;SDS011;24596;48.080;8.362;2022-10-16T00:27:57;5.82;;;2.22;;
38843;SDS011;24596;48.080;8.362;2022-10-16T00:30:22;5.18;;;2.35;;
38843;SDS011;24596;48.080;8.362;2022-10-16T00:32:48;5.85;;;2.20;;
38843;SDS011;24596;48.080;8.362;2022-10-16T00:35:13;7.78;;;2.42;;
38843;SDS011;24596;48.080;8.362;2022-10-16T00:37:38;7.03;;;2.33;;
38843;SDS011;24596;48.080;8.362;2022-10-16T00:40:03;6.15;;;2.45;;
38843;SDS011;24596;48.080;8.362;2022-10-16T00:42:29;5.15;;;2.20;;
38843;SDS011;24596;48.080;8.362;2022-10-16T00:44:55;7.20;;;2.35;;
38843;SDS011;24596;48.080;8.362;2022-10-16T00:49:51;7.03;;;2.00;;
38843;SDS011;24596;48.080;8.362;2022-10-16T00:52:16;4.30;;;2.08;;
38843;SDS011;24596;48.080;8.362;2022-10-16T00:54:42;7.15;;;1.88;;
38843;SDS011;24596;48.080;8.362;2022-10-16T00:57:08;7.65;;;2.13;;
38843;SDS011;24596;48.080;8.362;2022-10-16T00:59:34;2.95;;;1.58;;
38843;SDS011;24596;48.080;8.362;2022-10-16T01:02:00;2.67;;;1.20;;
38843;SDS011;24596;48.080;8.362;2022-10-16T01:04:25;6.05;;;1.75;;
38843;SDS011;24596;48.080;8.362;2022-10-16T01:06:53;2.67;;;1.10;;
38843;SDS011;24596;48.080;8.362;2022-10-16T01:09:26;2.58;;;0.73;;
38843;SDS011;24596;48.080;8.362;2022-10-16T01:12:15;3.45;;;0.88;;
38843;SDS011;24596;48.080;8.362;2022-10-16T01:14:48;2.03;;;0.90;;
38843;SDS011;24596;48.080;8.362;2022-10-16T01:17:18;5.18;;;1.10;;
38843;SDS011;24596;48.080;8.362;2022-10-16T01:22:13;6.82;;;1.50;;
38843;SDS011;24596;48.080;8.362;2022-10-16T01:24:40;2.28;;;1.13;;
38843;SDS011;24596;48.080;8.362;2022-10-16T01:27:09;8.50;;;1.77;;
38843;SDS011;24596;48.080;8.362;2022-10-16T01:29:56;7.40;;;1.70;;
38843;SDS011;24596;48.080;8.362;2022-10-16T01:32:24;4.00;;;1.10;;
38843;SDS011;24596;48.080;8.362;2022-10-16T01:34:53;2.30;;;1.25;;
38843;SDS011;24596;48.080;8.362;2022-10-16T01:37:29;5.07;;;1.33;;
38843;SDS011;24596;48.080;8.362;2022-10-16T01:39:58;6.25;;;1.10;;
38843;SDS011;24596;48.080;8.362;2022-10-16T01:42:24;3.47;;;1.20;;
38843;SDS011;24596;48.080;8.362;2022-10-16T01:44:53;3.65;;;1.20;;
38843;SDS011;24596;48.080;8.362;2022-10-16T01:47:21;3.38;;;1.30;;
38843;SDS011;24596;48.080;8.362;2022-10-16T01:49:47;2.40;;;0.98;;
38843;SDS011;24596;48.080;8.362;2022-10-16T01:52:14;3.55;;;1.05;;
38843;SDS011;24596;48.080;8.362;2022-10-16T01:54:41;4.18;;;1.38;;
38843;SDS011;24596;48.080;8.362;2022-10-16T01:57:07;3.70;;;1.30;;
38843;SDS011;24596;48.080;8.362;2022-10-16T01:59:33;9.18;;;1.38;;
38843;SDS011;24596;48.080;8.362;2022-10-16T02:02:01;5.40;;;1.35;;
38843;SDS011;24596;48.080;8.362;2022-10-16T02:04:31;5.47;;;1.27;;
38843;SDS011;24596;48.080;8.362;2022-10-16T02:06:57;5.05;;;1.08;;
38843;SDS011;24596;48.080;8.362;2022-10-16T02:09:22;2.88;;;1.27;;
38843;SDS011;24596;48.080;8.362;2022-10-16T02:11:47;6.80;;;1.60;;
38843;SDS011;24596;48.080;8.362;2022-10-16T02:14:14;3.03;;;1.30;;
38843;SDS011;24596;48.080;8.362;2022-10-16T02:16:40;2.50;;;1.42;;
38843;SDS011;24596;48.080;8.362;2022-10-16T02:19:06;3.28;;;1.60;;
38843;SDS011;24596;48.080;8.362;2022-10-16T02:21:54;6.22;;;1.80;;
38843;SDS011;24596;48.080;8.362;2022-10-16T02:27:19;5.35;;;2.03;;
38843;SDS011;24596;48.080;8.362;2022-10-16T02:29:47;4.70;;;1.60;;
38843;SDS011;24596;48.080;8.362;2022-10-16T02:32:15;5.70;;;1.60;;
38843;SDS011;24596;48.080;8.362;2022-10-16T02:34:42;5.85;;;1.42;;
38843;SDS011;24596;48.080;8.362;2022-10-16T02:37:08;18.73;;;3.33;;
38843;SDS011;24596;48.080;8.362;2022-10-16T02:39:35;6.13;;;1.40;;
38843;SDS011;24596;48.080;8.362;2022-10-16T02:42:00;4.43;;;1.20;;
38843;SDS011;24596;48.080;8.362;2022-10-16T02:44:26;4.07;;;1.25;;
38843;SDS011;24596;48.080;8.362;2022-10-16T02:46:51;3.90;;;1.45;;
38843;SDS011;24596;48.080;8.362;2022-10-16T02:49:16;4.30;;;1.20;;
38843;SDS011;24596;48.080;8.362;2022-10-16T02:51:42;3.97;;;1.45;;
38843;SDS011;24596;48.080;8.362;2022-10-16T02:54:07;4.80;;;1.60;;
38843;SDS011;24596;48.080;8.362;2022-10-16T02:56:33;2.75;;;1.23;;
38843;SDS011;24596;48.080;8.362;2022-10-16T02:58:58;4.18;;;1.20;;
38843;SDS011;24596;48.080;8.362;2022-10-16T03:01:23;4.75;;;1.40;;
38843;SDS011;24596;48.080;8.362;2022-10-16T03:03:49;4.68;;;1.23;;
38843;SDS011;24596;48.080;8.362;2022-10-16T03:06:14;9.88;;;1.65;;
38843;SDS011;24596;48.080;8.362;2022-10-16T03:08:39;2.85;;;1.30;;
38843;SDS011;24596;48.080;8.362;2022-10-16T03:11:04;2.97;;;1.33;;
38843;SDS011;24596;48.080;8.362;2022-10-16T03:13:30;3.70;;;1.40;;
38843;SDS011;24596;48.080;8.362;2022-10-16T03:15:55;8.77;;;1.35;;
38843;SDS011;24596;48.080;8.362;2022-10-16T03:18:20;7.15;;;1.92;;
38843;SDS011;24596;48.080;8.362;2022-10-16T03:20:45;4.20;;;1.88;;
38843;SDS011;24596;48.080;8.362;2022-10-16T03:23:10;2.50;;;1.30;;
38843;SDS011;24596;48.080;8.362;2022-10-16T03:25:36;5.35;;;1.88;;
38843;SDS011;24596;48.080;8.362;2022-10-16T03:28:01;3.50;;;1.27;;
38843;SDS011;24596;48.080;8.362;2022-10-16T03:30:26;7.20;;;1.27;;
38843;SDS011;24596;48.080;8.362;2022-10-16T03:32:52;4.90;;;1.83;;
38843;SDS011;24596;48.080;8.362;2022-10-16T03:35:19;4.72;;;1.95;;
38843;SDS011;24596;48.080;8.362;2022-10-16T03:37:44;2.72;;;1.30;;
38843;SDS011;24596;48.080;8.362;2022-10-16T03:40:09;6.88;;;1.83;;
38843;SDS011;24596;48.080;8.362;2022-10-16T03:42:35;4.70;;;1.50;;
38843;SDS011;24596;48.080;8.362;2022-10-16T03:45:00;5.70;;;1.88;;
38843;SDS011;24596;48.080;8.362;2022-10-16T03:47:25;5.15;;;1.50;;
38843;SDS011;24596;48.080;8.362;2022-10-16T03:49:50;5.05;;;1.30;;
38843;SDS011;24596;48.080;8.362;2022-10-16T03:52:16;4.30;;;1.03;;
38843;SDS011;24596;48.080;8.362;2022-10-16T03:54:41;8.48;;;1.70;;
38843;SDS011;24596;48.080;8.362;2022-10-16T03:57:06;6.20;;;1.30;;
38843;SDS011;24596;48.080;8.362;2022-10-16T03:59:32;3.10;;;1.30;;
38843;SDS011;24596;48.080;8.362;2022-10-16T04:01:57;4.68;;;1.73;;
38843;SDS011;24596;48.080;8.362;2022-10-16T04:04:22;4.20;;;1.60;;
38843;SDS011;24596;48.080;8.362;2022-10-16T04:06:47;5.22;;;1.30;;
38843;SDS011;24596;48.080;8.362;2022-10-16T04:09:12;3.40;;;1.40;;
38843;SDS011;24596;48.080;8.362;2022-10-16T04:11:38;4.35;;;1.50;;
38843;SDS011;24596;48.080;8.362;2022-10-16T04:14:03;6.43;;;1.33;;
38843;SDS011;24596;48.080;8.362;2022-10-16T04:16:29;4.47;;;1.20;;
38843;SDS011;24596;48.080;8.362;2022-10-16T04:18:54;3.13;;;1.17;;
38843;SDS011;24596;48.080;8.362;2022-10-16T04:21:19;4.10;;;1.20;;
38843;SDS011;24596;48.080;8.362;2022-10-16T04:23:44;4.72;;;1.30;;
38843;SDS011;24596;48.080;8.362;2022-10-16T04:26:09;5.28;;;1.35;;
38843;SDS011;24596;48.080;8.362;2022-10-16T04:28:35;6.55;;;1.17;;
38843;SDS011;24596;48.080;8.362;2022-10-16T04:31:03;6.75;;;1.67;;
38843;SDS011;24596;48.080;8.362;2022-10-16T04:33:28;4.78;;;1.15;;
38843;SDS011;24596;48.080;8.362;2022-10-16T04:35:57;5.13;;;1.48;;
38843;SDS011;24596;48.080;8.362;2022-10-16T04:38:22;3.70;;;1.50;;
38843;SDS011;24596;48.080;8.362;2022-10-16T04:40:48;5.18;;;2.03;;
38843;SDS011;24596;48.080;8.362;2022-10-16T04:43:13;4.93;;;1.90;;
38843;SDS011;24596;48.080;8.362;2022-10-16T04:45:38;4.25;;;1.90;;
38843;SDS011;24596;48.080;8.362;2022-10-16T04:48:03;4.85;;;2.20;;
38843;SDS011;24596;48.080;8.362;2022-10-16T04:50:28;8.48;;;2.10;;
38843;SDS011;24596;48.080;8.362;2022-10-16T04:52:54;6.13;;;2.20;;
38843;SDS011;24596;48.080;8.362;2022-10-16T04:55:19;4.25;;;1.95;;
38843;SDS011;24596;48.080;8.362;2022-10-16T04:57:44;8.45;;;1.92;;
38843;SDS011;24596;48.080;8.362;2022-10-16T05:00:10;7.03;;;1.73;;
38843;SDS011;24596;48.080;8.362;2022-10-16T05:02:35;6.90;;;1.90;;
38843;SDS011;24596;48.080;8.362;2022-10-16T05:05:00;3.28;;;1.58;;
38843;SDS011;24596;48.080;8.362;2022-10-16T05:07:25;8.35;;;1.67;;
38843;SDS011;24596;48.080;8.362;2022-10-16T05:09:50;3.35;;;1.40;;
38843;SDS011;24596;48.080;8.362;2022-10-16T05:12:16;4.18;;;1.50;;
38843;SDS011;24596;48.080;8.362;2022-10-16T05:14:41;6.95;;;1.60;;
38843;SDS011;24596;48.080;8.362;2022-10-16T05:17:06;9.23;;;1.90;;
38843;SDS011;24596;48.080;8.362;2022-10-16T05:19:31;7.57;;;1.67;;
38843;SDS011;24596;48.080;8.362;2022-10-16T05:21:57;6.53;;;1.90;;
38843;SDS011;24596;48.080;8.362;2022-10-16T05:24:22;3.70;;;1.90;;
38843;SDS011;24596;48.080;8.362;2022-10-16T05:26:47;6.20;;;2.22;;
38843;SDS011;24596;48.080;8.362;2022-10-16T05:29:13;6.63;;;2.78;;
38843;SDS011;24596;48.080;8.362;2022-10-16T05:31:38;7.68;;;1.88;;
38843;SDS011;24596;48.080;8.362;2022-10-16T05:34:03;6.05;;;2.53;;
38843;SDS011;24596;48.080;8.362;2022-10-16T05:36:28;6.38;;;2.10;;
38843;SDS011;24596;48.080;8.362;2022-10-16T05:38:53;5.47;;;2.63;;
38843;SDS011;24596;48.080;8.362;2022-10-16T05:41:19;7.05;;;1.90;;
38843;SDS011;24596;48.080;8.362;2022-10-16T05:43:48;8.85;;;2.47;;
38843;SDS011;24596;48.080;8.362;2022-10-16T05:46:14;7.18;;;2.75;;
38843;SDS011;24596;48.080;8.362;2022-10-16T05:48:39;7.07;;;2.33;;
38843;SDS011;24596;48.080;8.362;2022-10-16T05:51:05;7.88;;;2.80;;
38843;SDS011;24596;48.080;8.362;2022-10-16T05:53:34;6.90;;;2.60;;
38843;SDS011;24596;48.080;8.362;2022-10-16T05:56:00;8.40;;;2.60;;
38843;SDS011;24596;48.080;8.362;2022-10-16T05:58:28;7.85;;;2.83;;
38843;SDS011;24596;48.080;8.362;2022-10-16T06:00:56;7.35;;;2.58;;
38843;SDS011;24596;48.080;8.362;2022-10-16T06:03:22;9.07;;;2.47;;
38843;SDS011;24596;48.080;8.362;2022-10-16T06:05:47;5.07;;;2.00;;
38843;SDS011;24596;48.080;8.362;2022-10-16T06:08:13;6.18;;;1.90;;
38843;SDS011;24596;48.080;8.362;2022-10-16T06:10:38;5.03;;;1.90;;
38843;SDS011;24596;48.080;8.362;2022-10-16T06:13:03;5.68;;;1.80;;
38843;SDS011;24596;48.080;8.362;2022-10-16T06:15:29;4.07;;;1.65;;
38843;SDS011;24596;48.080;8.362;2022-10-16T06:17:54;3.67;;;1.48;;
38843;SDS011;24596;48.080;8.362;2022-10-16T06:20:19;5.57;;;2.10;;
38843;SDS011;24596;48.080;8.362;2022-10-16T06:22:45;6.85;;;3.05;;
38843;SDS011;24596;48.080;8.362;2022-10-16T06:25:10;11.48;;;5.32;;
38843;SDS011;24596;48.080;8.362;2022-10-16T06:27:35;5.28;;;2.97;;
38843;SDS011;24596;48.080;8.362;2022-10-16T06:30:00;6.35;;;2.83;;
38843;SDS011;24596;48.080;8.362;2022-10-16T06:32:26;6.47;;;2.65;;
38843;SDS011;24596;48.080;8.362;2022-10-16T06:34:52;4.85;;;2.30;;
38843;SDS011;24596;48.080;8.362;2022-10-16T06:37:17;7.82;;;2.30;;
38843;SDS011;24596;48.080;8.362;2022-10-16T06:39:42;5.65;;;2.30;;
38843;SDS011;24596;48.080;8.362;2022-10-16T06:42:07;4.35;;;2.05;;
38843;SDS011;24596;48.080;8.362;2022-10-16T06:44:32;4.55;;;1.95;;
38843;SDS011;24596;48.080;8.362;2022-10-16T06:46:58;9.80;;;4.47;;
38843;SDS011;24596;48.080;8.362;2022-10-16T06:49:23;6.15;;;3.53;;
38843;SDS011;24596;48.080;8.362;2022-10-16T06:51:48;6.13;;;2.95;;
38843;SDS011;24596;48.080;8.362;2022-10-16T06:54:14;5.57;;;1.95;;
38843;SDS011;24596;48.080;8.362;2022-10-16T06:56:40;7.53;;;2.38;;
38843;SDS011;24596;48.080;8.362;2022-10-16T06:59:05;9.15;;;3.35;;
38843;SDS011;24596;48.080;8.362;2022-10-16T07:01:30;7.78;;;3.60;;
38843;SDS011;24596;48.080;8.362;2022-10-16T07:03:55;9.70;;;4.35;;
38843;SDS011;24596;48.080;8.362;2022-10-16T07:06:22;10.05;;;4.70;;
38843;SDS011;24596;48.080;8.362;2022-10-16T07:08:48;7.85;;;4.45;;
38843;SDS011;24596;48.080;8.362;2022-10-16T07:11:15;15.20;;;4.97;;
38843;SDS011;24596;48.080;8.362;2022-10-16T07:13:41;8.52;;;3.97;;
38843;SDS011;24596;48.080;8.362;2022-10-16T07:18:32;14.23;;;7.80;;
38843;SDS011;24596;48.080;8.362;2022-10-16T07:21:04;13.48;;;6.70;;
38843;SDS011;24596;48.080;8.362;2022-10-16T07:23:29;10.57;;;6.68;;
38843;SDS011;24596;48.080;8.362;2022-10-16T07:25:55;11.45;;;6.57;;
38843;SDS011;24596;48.080;8.362;2022-10-16T07:28:20;11.13;;;5.85;;
38843;SDS011;24596;48.080;8.362;2022-10-16T07:30:45;10.40;;;5.38;;
38843;SDS011;24596;48.080;8.362;2022-10-16T07:33:10;9.77;;;5.00;;
38843;SDS011;24596;48.080;8.362;2022-10-16T07:35:36;6.75;;;3.72;;
38843;SDS011;24596;48.080;8.362;2022-10-16T07:38:01;7.03;;;3.22;;
38843;SDS011;24596;48.080;8.362;2022-10-16T07:40:26;10.00;;;2.85;;
38843;SDS011;24596;48.080;8.362;2022-10-16T07:42:52;5.65;;;2.63;;
38843;SDS011;24596;48.080;8.362;2022-10-16T07:45:17;5.45;;;2.17;;
38843;SDS011;24596;48.080;8.362;2022-10-16T07:47:42;7.50;;;2.13;;
38843;SDS011;24596;48.080;8.362;2022-10-16T07:50:07;7.97;;;2.50;;
38843;SDS011;24596;48.080;8.362;2022-10-16T07:52:33;7.45;;;2.25;;
38843;SDS011;24596;48.080;8.362;2022-10-16T07:54:58;7.82;;;2.60;;
38843;SDS011;24596;48.080;8.362;2022-10-16T07:57:23;4.28;;;2.20;;
38843;SDS011;24596;48.080;8.362;2022-10-16T07:59:48;4.60;;;1.52;;
38843;SDS011;24596;48.080;8.362;2022-10-16T08:02:13;6.65;;;1.50;;
38843;SDS011;24596;48.080;8.362;2022-10-16T08:04:39;7.28;;;1.90;;
38843;SDS011;24596;48.080;8.362;2022-10-16T08:07:04;8.38;;;2.30;;
38843;SDS011;24596;48.080;8.362;2022-10-16T08:09:29;5.38;;;1.80;;
38843;SDS011;24596;48.080;8.362;2022-10-16T08:11:54;7.03;;;1.95;;
38843;SDS011;24596;48.080;8.362;2022-10-16T08:14:20;4.95;;;2.05;;
38843;SDS011;24596;48.080;8.362;2022-10-16T08:16:45;4.32;;;1.80;;
38843;SDS011;24596;48.080;8.362;2022-10-16T08:19:10;4.63;;;1.90;;
38843;SDS011;24596;48.080;8.362;2022-10-16T08:21:35;6.65;;;1.75;;
38843;SDS011;24596;48.080;8.362;2022-10-16T08:24:00;5.95;;;1.75;;
38843;SDS011;24596;48.080;8.362;2022-10-16T08:26:26;4.77;;;1.73;;
38843;SDS011;24596;48.080;8.362;2022-10-16T08:28:51;3.63;;;1.52;;
38843;SDS011;24596;48.080;8.362;2022-10-16T08:31:17;6.85;;;1.70;;
38843;SDS011;24596;48.080;8.362;2022-10-16T08:33:43;4.85;;;1.45;;
38843;SDS011;24596;48.080;8.362;2022-10-16T08:36:09;3.58;;;1.60;;
38843;SDS011;24596;48.080;8.362;2022-10-16T08:38:34;6.78;;;1.77;;
38843;SDS011;24596;48.080;8.362;2022-10-16T08:41:14;10.82;;;2.20;;
38843;SDS011;24596;48.080;8.362;2022-10-16T08:46:30;4.82;;;1.73;;
38843;SDS011;24596;48.080;8.362;2022-10-16T08:49:02;5.10;;;1.70;;
38843;SDS011;24596;48.080;8.362;2022-10-16T08:51:31;4.38;;;1.23;;
38843;SDS011;24596;48.080;8.362;2022-10-16T08:53:57;3.00;;;1.30;;
38843;SDS011;24596;48.080;8.362;2022-10-16T08:56:24;5.18;;;1.52;;
38843;SDS011;24596;48.080;8.362;2022-10-16T08:58:49;4.88;;;2.10;;
38843;SDS011;24596;48.080;8.362;2022-10-16T09:01:16;3.10;;;1.42;;
38843;SDS011;24596;48.080;8.362;2022-10-16T09:03:58;8.20;;;1.80;;
38843;SDS011;24596;48.080;8.362;2022-10-16T09:14:01;4.30;;;1.80;;
38843;SDS011;24596;48.080;8.362;2022-10-16T09:16:39;2.88;;;1.33;;
38843;SDS011;24596;48.080;8.362;2022-10-16T09:19:21;9.05;;;1.40;;
38843;SDS011;24596;48.080;8.362;2022-10-16T09:21:49;2.35;;;1.00;;
38843;SDS011;24596;48.080;8.362;2022-10-16T09:24:16;6.07;;;1.40;;
38843;SDS011;24596;48.080;8.362;2022-10-16T09:26:43;5.78;;;1.40;;
38843;SDS011;24596;48.080;8.362;2022-10-16T09:29:15;3.45;;;1.17;;
38843;SDS011;24596;48.080;8.362;2022-10-16T09:31:41;3.92;;;1.98;;
38843;SDS011;24596;48.080;8.362;2022-10-16T09:34:08;2.75;;;1.15;;
38843;SDS011;24596;48.080;8.362;2022-10-16T09:36:42;3.60;;;1.15;;
38843;SDS011;24596;48.080;8.362;2022-10-16T09:39:10;5.88;;;2.13;;
38843;SDS011;24596;48.080;8.362;2022-10-16T09:41:37;4.22;;;1.48;;
38843;SDS011;24596;48.080;8.362;2022-10-16T09:44:03;6.03;;;1.40;;
38843;SDS011;24596;48.080;8.362;2022-10-16T09:46:31;4.70;;;1.40;;
38843;SDS011;24596;48.080;8.362;2022-10-16T09:49:00;3.63;;;1.73;;
38843;SDS011;24596;48.080;8.362;2022-10-16T09:51:27;1.85;;;1.13;;
38843;SDS011;24596;48.080;8.362;2022-10-16T09:54:00;3.08;;;1.05;;
38843;SDS011;24596;48.080;8.362;2022-10-16T09:56:32;4.47;;;1.27;;
38843;SDS011;24596;48.080;8.362;2022-10-16T09:58:59;3.25;;;1.20;;
38843;SDS011;24596;48.080;8.362;2022-10-16T10:04:08;2.95;;;1.30;;
38843;SDS011;24596;48.080;8.362;2022-10-16T10:06:35;3.75;;;1.17;;
38843;SDS011;24596;48.080;8.362;2022-10-16T10:11:44;5.88;;;1.08;;
38843;SDS011;24596;48.080;8.362;2022-10-16T10:14:15;4.97;;;1.05;;
38843;SDS011;24596;48.080;8.362;2022-10-16T10:16:41;2.85;;;1.33;;
38843;SDS011;24596;48.080;8.362;2022-10-16T10:19:13;5.18;;;1.20;;
38843;SDS011;24596;48.080;8.362;2022-10-16T10:24:04;5.50;;;1.23;;
38843;SDS011;24596;48.080;8.362;2022-10-16T10:26:31;4.60;;;1.10;;
38843;SDS011;24596;48.080;8.362;2022-10-16T10:36:48;3.05;;;1.10;;
38843;SDS011;24596;48.080;8.362;2022-10-16T10:39:18;3.95;;;1.10;;
38843;SDS011;24596;48.080;8.362;2022-10-16T10:44:50;6.82;;;2.17;;
38843;SDS011;24596;48.080;8.362;2022-10-16T10:50:00;4.13;;;1.48;;
38843;SDS011;24596;48.080;8.362;2022-10-16T10:57:35;3.77;;;1.07;;
38843;SDS011;24596;48.080;8.362;2022-10-16T11:00:20;6.57;;;1.30;;
38843;SDS011;24596;48.080;8.362;2022-10-16T11:03:11;4.13;;;1.20;;
38843;SDS011;24596;48.080;8.362;2022-10-16T11:05:45;5.93;;;1.23;;
38843;SDS011;24596;48.080;8.362;2022-10-16T11:08:16;1.83;;;0.90;;
38843;SDS011;24596;48.080;8.362;2022-10-16T11:10:44;3.22;;;1.50;;
38843;SDS011;24596;48.080;8.362;2022-10-16T11:13:16;1.67;;;0.80;;
38843;SDS011;24596;48.080;8.362;2022-10-16T11:15:44;4.28;;;1.20;;
38843;SDS011;24596;48.080;8.362;2022-10-16T11:18:15;4.32;;;1.00;;
38843;SDS011;24596;48.080;8.362;2022-10-16T11:20:52;7.57;;;1.55;;
38843;SDS011;24596;48.080;8.362;2022-10-16T11:23:33;3.47;;;1.15;;
38843;SDS011;24596;48.080;8.362;2022-10-16T11:26:04;3.55;;;1.70;;
38843;SDS011;24596;48.080;8.362;2022-10-16T11:28:32;3.38;;;1.30;;
38843;SDS011;24596;48.080;8.362;2022-10-16T11:33:53;8.68;;;1.30;;
38843;SDS011;24596;48.080;8.362;2022-10-16T11:44:06;4.03;;;1.20;;
38843;SDS011;24596;48.080;8.362;2022-10-16T11:46:32;6.13;;;1.30;;
38843;SDS011;24596;48.080;8.362;2022-10-16T11:49:15;3.33;;;1.35;;
38843;SDS011;24596;48.080;8.362;2022-10-16T11:51:45;5.38;;;1.20;;
38843;SDS011;24596;48.080;8.362;2022-10-16T11:56:58;2.15;;;1.10;;
38843;SDS011;24596;48.080;8.362;2022-10-16T11:59:27;3.92;;;1.30;;
38843;SDS011;24596;48.080;8.362;2022-10-16T12:01:57;2.72;;;1.30;;
38843;SDS011;24596;48.080;8.362;2022-10-16T12:04:33;5.25;;;1.50;;
38843;SDS011;24596;48.080;8.362;2022-10-16T12:07:03;4.30;;;1.30;;
38843;SDS011;24596;48.080;8.362;2022-10-16T12:09:30;6.95;;;1.20;;
38843;SDS011;24596;48.080;8.362;2022-10-16T12:11:55;5.32;;;1.42;;
38843;SDS011;24596;48.080;8.362;2022-10-16T12:14:22;6.43;;;1.85;;
38843;SDS011;24596;48.080;8.362;2022-10-16T12:16:59;5.38;;;1.83;;
38843;SDS011;24596;48.080;8.362;2022-10-16T12:19:26;4.35;;;1.45;;
38843;SDS011;24596;48.080;8.362;2022-10-16T12:21:53;8.10;;;3.38;;
38843;SDS011;24596;48.080;8.362;2022-10-16T12:24:41;5.05;;;2.05;;
38843;SDS011;24596;48.080;8.362;2022-10-16T12:27:27;7.00;;;1.80;;
38843;SDS011;24596;48.080;8.362;2022-10-16T12:29:54;5.50;;;1.95;;
38843;SDS011;24596;48.080;8.362;2022-10-16T12:32:30;3.60;;;1.17;;
38843;SDS011;24596;48.080;8.362;2022-10-16T12:34:56;4.03;;;1.30;;
38843;SDS011;24596;48.080;8.362;2022-10-16T12:37:32;3.22;;;1.10;;
38843;SDS011;24596;48.080;8.362;2022-10-16T12:39:58;3.13;;;1.00;;
38843;SDS011;24596;48.080;8.362;2022-10-16T12:44:52;2.53;;;1.17;;
38843;SDS011;24596;48.080;8.362;2022-10-16T12:47:22;4.60;;;1.40;;
38843;SDS011;24596;48.080;8.362;2022-10-16T12:49:49;3.78;;;1.23;;
38843;SDS011;24596;48.080;8.362;2022-10-16T12:52:24;3.30;;;1.40;;
38843;SDS011;24596;48.080;8.362;2022-10-16T12:54:50;3.40;;;1.30;;
38843;SDS011;24596;48.080;8.362;2022-10-16T12:57:29;5.95;;;1.15;;
38843;SDS011;24596;48.080;8.362;2022-10-16T13:02:55;10.50;;;1.83;;
38843;SDS011;24596;48.080;8.362;2022-10-16T13:15:41;3.97;;;1.27;;
38843;SDS011;24596;48.080;8.362;2022-10-16T13:18:13;4.88;;;1.17;;
38843;SDS011;24596;48.080;8.362;2022-10-16T13:23:16;2.03;;;1.00;;
38843;SDS011;24596;48.080;8.362;2022-10-16T13:28:22;8.10;;;1.40;;
38843;SDS011;24596;48.080;8.362;2022-10-16T13:30:52;4.68;;;1.77;;
38843;SDS011;24596;48.080;8.362;2022-10-16T13:33:37;5.57;;;1.33;;
38843;SDS011;24596;48.080;8.362;2022-10-16T13:36:04;4.35;;;1.10;;
38843;SDS011;24596;48.080;8.362;2022-10-16T13:38:30;3.22;;;0.95;;
38843;SDS011;24596;48.080;8.362;2022-10-16T13:40:58;7.25;;;1.20;;
38843;SDS011;24596;48.080;8.362;2022-10-16T13:43:34;2.47;;;1.02;;
38843;SDS011;24596;48.080;8.362;2022-10-16T13:46:01;3.92;;;1.10;;
38843;SDS011;24596;48.080;8.362;2022-10-16T13:48:27;7.57;;;1.00;;
38843;SDS011;24596;48.080;8.362;2022-10-16T13:50:59;2.80;;;0.85;;
38843;SDS011;24596;48.080;8.362;2022-10-16T13:53:24;5.43;;;1.00;;
38843;SDS011;24596;48.080;8.362;2022-10-16T13:55:49;4.15;;;1.00;;
38843;SDS011;24596;48.080;8.362;2022-10-16T13:58:15;2.03;;;0.90;;
38843;SDS011;24596;48.080;8.362;2022-10-16T14:00:41;3.75;;;1.30;;
38843;SDS011;24596;48.080;8.362;2022-10-16T14:03:17;2.42;;;0.98;;
38843;SDS011;24596;48.080;8.362;2022-10-16T14:05:44;3.72;;;0.90;;
38843;SDS011;24596;48.080;8.362;2022-10-16T14:08:11;2.40;;;1.00;;
38843;SDS011;24596;48.080;8.362;2022-10-16T14:10:36;3.15;;;1.05;;
38843;SDS011;24596;48.080;8.362;2022-10-16T14:13:03;5.47;;;1.00;;
38843;SDS011;24596;48.080;8.362;2022-10-16T14:15:33;4.57;;;1.10;;
38843;SDS011;24596;48.080;8.362;2022-10-16T14:17:59;2.33;;;0.80;;
38843;SDS011;24596;48.080;8.362;2022-10-16T14:20:26;3.88;;;1.00;;
38843;SDS011;24596;48.080;8.362;2022-10-16T14:23:16;4.05;;;1.30;;
38843;SDS011;24596;48.080;8.362;2022-10-16T14:25:43;2.90;;;0.90;;
38843;SDS011;24596;48.080;8.362;2022-10-16T14:28:17;5.30;;;1.42;;
38843;SDS011;24596;48.080;8.362;2022-10-16T14:30:53;3.13;;;0.90;;
38843;SDS011;24596;48.080;8.362;2022-10-16T14:33:20;3.13;;;0.90;;
38843;SDS011;24596;48.080;8.362;2022-10-16T14:35:46;3.53;;;0.90;;
38843;SDS011;24596;48.080;8.362;2022-10-16T14:38:18;2.65;;;0.90;;
38843;SDS011;24596;48.080;8.362;2022-10-16T14:40:46;1.77;;;0.80;;
38843;SDS011;24596;48.080;8.362;2022-10-16T14:45:49;5.38;;;1.15;;
38843;SDS011;24596;48.080;8.362;2022-10-16T14:48:16;4.60;;;0.90;;
38843;SDS011;24596;48.080;8.362;2022-10-16T14:50:42;4.07;;;1.00;;
38843;SDS011;24596;48.080;8.362;2022-10-16T14:53:11;7.20;;;1.15;;
38843;SDS011;24596;48.080;8.362;2022-10-16T14:55:37;2.15;;;0.80;;
38843;SDS011;24596;48.080;8.362;2022-10-16T14:58:02;4.57;;;0.80;;
38843;SDS011;24596;48.080;8.362;2022-10-16T15:00:27;2.00;;;1.00;;
38843;SDS011;24596;48.080;8.362;2022-10-16T15:02:55;2.70;;;0.80;;
38843;SDS011;24596;48.080;8.362;2022-10-16T15:05:21;2.90;;;0.80;;
38843;SDS011;24596;48.080;8.362;2022-10-16T15:07:47;3.28;;;0.95;;
38843;SDS011;24596;48.080;8.362;2022-10-16T15:10:14;3.10;;;0.90;;
38843;SDS011;24596;48.080;8.362;2022-10-16T15:12:39;6.03;;;1.13;;
38843;SDS011;24596;48.080;8.362;2022-10-16T15:15:14;3.15;;;0.95;;
38843;SDS011;24596;48.080;8.362;2022-10-16T15:17:40;2.35;;;1.00;;
38843;SDS011;24596;48.080;8.362;2022-10-16T15:20:06;3.22;;;0.93;;
38843;SDS011;24596;48.080;8.362;2022-10-16T15:22:31;3.05;;;1.42;;
38843;SDS011;24596;48.080;8.362;2022-10-16T15:24:56;2.22;;;1.05;;
38843;SDS011;24596;48.080;8.362;2022-10-16T15:27:21;5.28;;;1.17;;
38843;SDS011;24596;48.080;8.362;2022-10-16T15:29:47;3.28;;;1.10;;
38843;SDS011;24596;48.080;8.362;2022-10-16T15:32:22;4.47;;;1.27;;
38843;SDS011;24596;48.080;8.362;2022-10-16T15:34:53;5.20;;;0.93;;
38843;SDS011;24596;48.080;8.362;2022-10-16T15:37:19;8.13;;;1.25;;
38843;SDS011;24596;48.080;8.362;2022-10-16T15:39:44;4.15;;;1.08;;
38843;SDS011;24596;48.080;8.362;2022-10-16T15:42:13;7.78;;;1.00;;
38843;SDS011;24596;48.080;8.362;2022-10-16T15:44:38;4.68;;;1.10;;
38843;SDS011;24596;48.080;8.362;2022-10-16T15:47:05;3.75;;;1.10;;
38843;SDS011;24596;48.080;8.362;2022-10-16T15:49:32;5.15;;;1.10;;
38843;SDS011;24596;48.080;8.362;2022-10-16T15:51:57;3.65;;;1.33;;
38843;SDS011;24596;48.080;8.362;2022-10-16T15:54:22;6.63;;;0.98;;
38843;SDS011;24596;48.080;8.362;2022-10-16T15:56:48;4.40;;;1.40;;
38843;SDS011;24596;48.080;8.362;2022-10-16T15:59:13;7.57;;;2.83;;
38843;SDS011;24596;48.080;8.362;2022-10-16T16:01:39;6.20;;;1.73;;
38843;SDS011;24596;48.080;8.362;2022-10-16T16:04:04;3.80;;;1.80;;
38843;SDS011;24596;48.080;8.362;2022-10-16T16:06:29;5.38;;;1.70;;
38843;SDS011;24596;48.080;8.362;2022-10-16T16:08:58;6.57;;;1.38;;
38843;SDS011;24596;48.080;8.362;2022-10-16T16:11:33;10.00;;;2.30;;
38843;SDS011;24596;48.080;8.362;2022-10-16T16:14:10;9.45;;;1.88;;